Time;durP1;ratioP1;P1;durP2;ratioP2;P2;SDS_P1;SDS_P2;PMS_P1;PMS_P2;Temp;Humidity;BMP_temperature;BMP_pressure;BME280_temperature;BME280_humidity;BME280_pressure;Samples;Min_cycle;Max_cycle;Signal;HPM_P1;HPM_P2
2023/08/09 00:00:31;;;;;;;2.38;0.90;;;;;;;14.63;100.00;100814.38;6300188;28;20053;-69
2023/08/09 00:03:33;;;;;;;3.42;1.08;;;;;;;14.59;100.00;100807.63;6299623;28;20455;-69
2023/08/09 00:06:34;;;;;;;1.42;0.90;;;;;;;14.66;100.00;100806.22;6299876;28;20052;-69
2023/08/09 00:09:36;;;;;;;0.82;0.60;;;;;;;14.66;100.00;100804.41;6299972;28;20053;-68
2023/08/09 00:12:39;;;;;;;2.35;0.73;;;;;;;14.38;100.00;100812.53;6284994;28;20457;-68
2023/08/09 00:15:40;;;;;;;3.28;1.13;;;;;;;14.23;100.00;100801.22;6286246;28;20045;-70
2023/08/09 00:18:41;;;;;;;1.75;1.00;;;;;;;14.35;100.00;100807.44;6299098;28;20049;-69
2023/08/09 00:21:43;;;;;;;2.47;1.08;;;;;;;14.41;100.00;100807.88;6299635;28;20049;-69
2023/08/09 00:24:44;;;;;;;0.85;0.80;;;;;;;14.42;100.00;100803.44;6299745;28;20052;-69
2023/08/09 00:27:47;;;;;;;0.93;0.77;;;;;;;14.42;100.00;100808.72;6299924;28;20052;-69
2023/08/09 00:30:48;;;;;;;0.93;0.77;;;;;;;14.49;100.00;100814.47;6298740;28;20077;-69
2023/08/09 00:33:50;;;;;;;1.73;1.25;;;;;;;14.43;100.00;100815.72;6295187;28;20486;-69
2023/08/09 00:36:52;;;;;;;3.67;1.00;;;;;;;14.40;100.00;100806.22;6304406;28;20052;-68
2023/08/09 00:39:53;;;;;;;1.15;0.77;;;;;;;14.38;100.00;100816.03;6304564;28;20146;-69
2023/08/09 00:42:56;;;;;;;1.50;1.08;;;;;;;14.37;100.00;100814.34;6304138;28;20048;-68
2023/08/09 00:45:57;;;;;;;1.13;0.90;;;;;;;14.31;100.00;100806.00;6304216;28;20048;-68
2023/08/09 00:48:59;;;;;;;1.98;1.00;;;;;;;14.21;100.00;100811.03;6304204;28;20048;-68
2023/08/09 00:52:00;;;;;;;2.83;1.10;;;;;;;14.27;100.00;100810.63;6301387;28;20048;-68
2023/08/09 00:55:03;;;;;;;2.90;1.30;;;;;;;14.15;100.00;100807.00;6297230;28;20370;-68
2023/08/09 00:58:06;;;;;;;4.75;1.13;;;;;;;14.13;100.00;100810.72;6303897;28;20075;-70
2023/08/09 01:01:08;;;;;;;2.40;1.20;;;;;;;14.17;100.00;100813.06;6303959;28;20051;-69
2023/08/09 01:04:10;;;;;;;2.28;1.35;;;;;;;14.09;100.00;100811.88;6291291;28;20048;-69
2023/08/09 01:07:17;;;;;;;4.78;1.10;;;;;;;14.01;100.00;100809.72;6303855;28;20055;-71
2023/08/09 01:10:26;;;;;;;2.83;1.27;;;;;;;14.03;100.00;100818.38;6303506;28;20325;-70
2023/08/09 01:13:31;;;;;;;4.72;1.35;;;;;;;14.09;100.00;100820.66;6310119;22;20049;-71
2023/08/09 01:16:37;;;;;;;2.22;1.23;;;;;;;14.01;100.00;100827.38;6275758;28;20572;-71
2023/08/09 01:19:42;;;;;;;1.92;1.30;;;;;;;13.89;100.00;100821.09;6253824;28;20049;-71
2023/08/09 01:22:50;;;;;;;2.53;1.40;;;;;;;13.88;100.00;100824.69;6272193;28;20052;-71
2023/08/09 01:25:53;;;;;;;4.10;1.40;;;;;;;13.98;100.00;100825.78;6278482;28;20052;-71
2023/08/09 01:28:55;;;;;;;1.50;1.15;;;;;;;13.98;100.00;100825.78;6278299;28;20061;-71
2023/08/09 01:31:56;;;;;;;2.75;1.70;;;;;;;13.85;100.00;100819.59;6278342;28;20045;-71
2023/08/09 01:34:59;;;;;;;2.33;1.33;;;;;;;13.83;100.00;100830.28;6277950;28;20049;-71
2023/08/09 01:38:05;;;;;;;2.38;1.48;;;;;;;13.93;100.00;100833.16;6278216;28;20053;-71
2023/08/09 01:41:09;;;;;;;1.80;1.60;;;;;;;13.81;100.00;100826.91;6277962;28;20060;-71
2023/08/09 01:44:11;;;;;;;1.85;1.48;;;;;;;13.60;100.00;100834.44;6276733;28;20056;-71
2023/08/09 01:47:14;;;;;;;4.53;2.25;;;;;;;13.59;100.00;100830.09;6277935;28;20087;-71
2023/08/09 01:50:20;;;;;;;2.95;1.60;;;;;;;13.59;100.00;100835.38;6278097;28;20049;-70
2023/08/09 01:53:22;;;;;;;3.10;1.60;;;;;;;13.58;100.00;100832.81;6277687;28;20072;-71
2023/08/09 01:56:24;;;;;;;8.07;1.77;;;;;;;13.43;100.00;100835.50;6277515;28;20049;-71
2023/08/09 01:59:26;;;;;;;4.47;1.95;;;;;;;13.52;100.00;100834.06;6277743;28;20048;-71
2023/08/09 02:02:27;;;;;;;5.25;2.08;;;;;;;13.32;100.00;100835.34;6277426;28;20353;-71
2023/08/09 02:05:29;;;;;;;3.13;1.52;;;;;;;13.42;100.00;100840.88;6277462;28;20060;-71
2023/08/09 02:08:30;;;;;;;3.33;1.50;;;;;;;13.32;100.00;100845.06;6277404;28;20064;-71
2023/08/09 02:11:33;;;;;;;5.03;2.03;;;;;;;13.28;100.00;100846.19;6282341;28;20345;-71
2023/08/09 02:14:34;;;;;;;4.15;1.70;;;;;;;13.30;100.00;100847.78;6280649;28;20053;-71
2023/08/09 02:17:36;;;;;;;4.63;1.80;;;;;;;13.42;100.00;100847.00;6291561;28;20440;-71
2023/08/09 02:20:38;;;;;;;4.18;2.00;;;;;;;13.18;100.00;100848.53;6301986;28;20045;-71
2023/08/09 02:23:40;;;;;;;5.78;2.08;;;;;;;12.94;100.00;100842.97;6301541;28;20052;-71
2023/08/09 02:26:43;;;;;;;3.92;2.25;;;;;;;12.91;100.00;100849.31;6299335;28;20047;-72
2023/08/09 02:29:45;;;;;;;6.57;2.38;;;;;;;12.81;100.00;100847.31;6292500;28;20048;-73
2023/08/09 02:32:47;;;;;;;4.65;2.35;;;;;;;13.00;100.00;100841.78;6301571;28;20047;-71
2023/08/09 02:35:54;;;;;;;5.93;2.22;;;;;;;13.10;100.00;100843.72;6301352;28;20056;-71
2023/08/09 02:38:55;;;;;;;5.57;2.63;;;;;;;13.09;100.00;100854.38;6301675;28;20048;-71
2023/08/09 02:41:58;;;;;;;4.30;2.40;;;;;;;13.20;100.00;100854.56;6301446;28;20044;-71
2023/08/09 02:45:00;;;;;;;5.72;2.65;;;;;;;13.12;100.00;100854.19;6301234;28;20092;-72
2023/08/09 02:48:02;;;;;;;3.38;2.10;;;;;;;13.24;100.00;100857.88;6301373;28;20051;-71
2023/08/09 02:51:03;;;;;;;4.43;2.38;;;;;;;13.20;100.00;100860.69;6301005;28;20049;-71
2023/08/09 02:54:06;;;;;;;4.22;2.58;;;;;;;13.25;100.00;100859.56;6300873;28;20044;-71
2023/08/09 02:57:09;;;;;;;3.30;2.30;;;;;;;13.23;100.00;100861.47;6300520;28;20044;-71
2023/08/09 03:00:15;;;;;;;5.25;2.50;;;;;;;13.16;100.00;100858.31;6300910;28;20467;-71
2023/08/09 03:03:17;;;;;;;4.43;3.05;;;;;;;13.00;100.00;100865.50;6289033;28;20045;-71
2023/08/09 03:06:21;;;;;;;6.10;2.78;;;;;;;13.07;100.00;100880.00;6300838;28;20056;-71
2023/08/09 03:09:22;;;;;;;4.10;2.35;;;;;;;13.12;100.00;100872.66;6300786;28;20059;-71
2023/08/09 03:12:25;;;;;;;4.82;2.70;;;;;;;13.06;100.00;100875.69;6300476;28;20201;-71
2023/08/09 03:15:26;;;;;;;6.85;2.97;;;;;;;13.09;100.00;100883.41;6300302;28;20075;-70
2023/08/09 03:18:27;;;;;;;5.63;3.13;;;;;;;12.91;100.00;100888.88;6300795;28;20048;-71
2023/08/09 03:21:29;;;;;;;7.82;3.40;;;;;;;12.97;100.00;100890.28;6300711;28;20056;-71
2023/08/09 03:24:30;;;;;;;4.65;3.28;;;;;;;13.08;100.00;100885.22;6300148;28;20357;-71
2023/08/09 03:27:33;;;;;;;7.97;3.53;;;;;;;12.94;100.00;100885.19;6300608;28;20448;-71
2023/08/09 03:30:34;;;;;;;7.60;3.13;;;;;;;12.93;100.00;100894.88;6300427;28;20055;-71
2023/08/09 03:33:36;;;;;;;7.18;4.10;;;;;;;12.97;100.00;100898.19;6300098;28;20052;-71
2023/08/09 03:36:38;;;;;;;6.15;4.00;;;;;;;12.85;100.00;100891.88;6300290;28;20052;-71
2023/08/09 03:39:39;;;;;;;7.18;3.72;;;;;;;12.82;100.00;100892.06;6280819;28;20057;-70
2023/08/09 03:42:42;;;;;;;8.95;3.83;;;;;;;12.92;100.00;100901.09;6260121;28;20056;-71
2023/08/09 03:45:43;;;;;;;6.70;4.05;;;;;;;12.81;100.00;100894.78;6275406;28;20053;-71
2023/08/09 03:48:45;;;;;;;7.63;4.03;;;;;;;12.59;100.00;100908.41;6275355;28;20053;-72
2023/08/09 03:51:46;;;;;;;9.13;3.95;;;;;;;12.63;100.00;100910.78;6275113;28;20350;-72
2023/08/09 03:54:52;;;;;;;5.30;3.92;;;;;;;12.65;100.00;100911.53;6275094;28;20052;-72
2023/08/09 03:57:54;;;;;;;8.80;4.25;;;;;;;12.59;100.00;100919.81;6275151;28;20053;-71
2023/08/09 04:00:56;;;;;;;10.43;4.30;;;;;;;12.56;100.00;100930.53;6275245;28;20045;-71
2023/08/09 04:03:57;;;;;;;8.65;4.38;;;;;;;12.60;100.00;100937.31;6271469;28;20056;-72
2023/08/09 04:06:58;;;;;;;7.60;4.10;;;;;;;12.42;100.00;100933.97;6275066;28;20049;-71
2023/08/09 04:10:00;;;;;;;9.07;4.10;;;;;;;12.38;100.00;100934.22;6274370;28;20143;-72
2023/08/09 04:13:03;;;;;;;10.18;5.13;;;;;;;12.36;100.00;100938.75;6279941;28;20045;-73
2023/08/09 04:16:04;;;;;;;8.38;4.72;;;;;;;12.37;100.00;100940.44;6276562;28;20453;-73
2023/08/09 04:19:06;;;;;;;6.95;4.25;;;;;;;12.35;100.00;100939.66;6265935;28;20053;-73
2023/08/09 04:22:07;;;;;;;10.65;4.40;;;;;;;12.21;100.00;100939.59;6267287;28;20049;-71
2023/08/09 04:25:10;;;;;;;13.93;5.20;;;;;;;12.26;100.00;100940.19;6280149;28;20036;-71
2023/08/09 04:28:13;;;;;;;9.13;5.18;;;;;;;12.15;100.00;100954.00;6288308;28;20059;-71
2023/08/09 04:31:14;;;;;;;7.90;4.47;;;;;;;12.06;100.00;100958.00;6280095;28;20429;-71
2023/08/09 04:34:16;;;;;;;11.15;4.30;;;;;;;12.13;100.00;100966.41;6268358;28;20041;-70
2023/08/09 04:37:17;;;;;;;8.77;4.20;;;;;;;12.10;100.00;100963.94;6279436;28;20049;-71
2023/08/09 04:40:18;;;;;;;7.93;4.78;;;;;;;12.08;100.00;100971.94;6279651;28;20078;-71
2023/08/09 04:43:21;;;;;;;9.70;4.63;;;;;;;12.03;100.00;100968.69;6282765;28;20044;-71
2023/08/09 04:46:23;;;;;;;7.15;4.53;;;;;;;12.15;100.00;100975.06;6295750;28;20055;-71
2023/08/09 04:49:25;;;;;;;7.68;3.95;;;;;;;12.08;100.00;100977.22;6304096;28;20049;-71
2023/08/09 04:52:26;;;;;;;8.70;4.85;;;;;;;12.06;100.00;100975.59;6303835;28;20448;-71
2023/08/09 04:55:27;;;;;;;10.00;4.70;;;;;;;12.18;100.00;100982.81;6303621;28;20349;-71
2023/08/09 04:58:30;;;;;;;11.77;5.43;;;;;;;12.23;100.00;100979.91;6276396;28;20069;-71
2023/08/09 05:01:32;;;;;;;9.07;5.28;;;;;;;12.27;100.00;100984.94;6254221;28;20049;-71
2023/08/09 05:04:33;;;;;;;13.40;5.22;;;;;;;12.33;100.00;100991.63;6254080;28;20053;-70
2023/08/09 05:07:35;;;;;;;7.80;4.85;;;;;;;12.22;100.00;101000.16;6254079;28;20053;-71
2023/08/09 05:10:37;;;;;;;7.93;4.50;;;;;;;12.12;100.00;100991.88;6271845;28;20052;-72
2023/08/09 05:13:40;;;;;;;7.45;4.63;;;;;;;12.06;100.00;100996.66;6294729;28;20044;-71
2023/08/09 05:16:41;;;;;;;10.00;4.65;;;;;;;12.25;100.00;101002.59;6303471;28;20061;-71
2023/08/09 05:19:43;;;;;;;9.27;4.95;;;;;;;12.23;100.00;101011.53;6303528;28;20048;-71
2023/08/09 05:22:44;;;;;;;9.30;5.05;;;;;;;12.23;100.00;101006.25;6303246;28;20055;-71
2023/08/09 05:25:45;;;;;;;11.25;5.75;;;;;;;12.32;100.00;101001.31;6303232;28;20455;-71
2023/08/09 05:28:48;;;;;;;9.35;5.70;;;;;;;12.48;100.00;101011.81;6303259;28;20060;-71
2023/08/09 05:31:50;;;;;;;11.98;6.43;;;;;;;12.44;100.00;101012.94;6303083;28;20048;-71
2023/08/09 05:34:51;;;;;;;14.07;5.82;;;;;;;12.55;100.00;101005.28;6302784;28;20052;-71
2023/08/09 05:37:52;;;;;;;10.13;5.68;;;;;;;12.60;100.00;101012.94;6302819;28;20467;-70
2023/08/09 05:40:55;;;;;;;11.98;5.72;;;;;;;12.51;100.00;101016.94;6302857;28;20100;-69
2023/08/09 05:43:57;;;;;;;11.15;5.93;;;;;;;12.63;100.00;101013.59;6302425;28;20056;-71
2023/08/09 05:46:59;;;;;;;10.52;5.78;;;;;;;12.71;100.00;101023.69;6303056;28;20048;-69
2023/08/09 05:50:00;;;;;;;12.07;6.05;;;;;;;12.78;100.00;101014.50;6302804;28;20059;-69
2023/08/09 05:53:02;;;;;;;9.43;5.53;;;;;;;12.87;100.00;101010.47;6293709;28;20175;-69
2023/08/09 05:56:03;;;;;;;12.23;6.03;;;;;;;12.91;100.00;101023.41;6302514;28;20049;-70
2023/08/09 05:59:06;;;;;;;10.48;4.85;;;;;;;12.89;100.00;101024.41;6302770;28;20198;-69
2023/08/09 06:02:08;;;;;;;9.75;5.47;;;;;;;12.88;100.00;101030.63;6302343;28;20432;-71
2023/08/09 06:05:13;;;;;;;8.88;5.18;;;;;;;12.83;100.00;101033.53;6302181;28;20352;-70
2023/08/09 06:08:15;;;;;;;11.43;5.78;;;;;;;12.86;100.00;101036.00;6302544;28;20045;-72
2023/08/09 06:11:17;;;;;;;9.60;4.63;;;;;;;13.02;100.00;101043.00;6302235;28;20429;-72
2023/08/09 06:14:20;;;;;;;10.98;4.43;;;;;;;12.99;100.00;101033.50;6301765;28;20051;-71
2023/08/09 06:17:21;;;;;;;7.97;4.38;;;;;;;13.05;100.00;101040.19;6302102;28;20519;-69
2023/08/09 06:20:23;;;;;;;6.85;4.05;;;;;;;13.19;100.00;101048.16;6302294;28;20063;-71
2023/08/09 06:23:24;;;;;;;11.82;4.40;;;;;;;13.25;100.00;101049.59;6294198;28;20051;-68
2023/08/09 06:26:26;;;;;;;8.27;3.45;;;;;;;13.32;100.00;101053.59;6289518;28;20457;-68
2023/08/09 06:29:28;;;;;;;6.95;3.80;;;;;;;13.34;100.00;101056.97;6301183;28;20075;-69
2023/08/09 06:32:30;;;;;;;5.57;3.30;;;;;;;13.47;100.00;101055.28;6294793;28;20041;-68
2023/08/09 06:35:32;;;;;;;4.55;2.83;;;;;;;13.54;100.00;101056.63;6298149;28;20049;-68
2023/08/09 06:38:33;;;;;;;5.30;2.85;;;;;;;13.57;100.00;101055.56;6301490;28;20052;-68
2023/08/09 06:41:35;;;;;;;7.35;3.80;;;;;;;13.59;100.00;101057.19;6301421;28;20326;-68
2023/08/09 06:44:38;;;;;;;8.95;3.28;;;;;;;13.71;100.00;101056.41;6295175;28;20353;-68
2023/08/09 06:47:39;;;;;;;6.40;2.85;;;;;;;13.77;100.00;101067.59;6293163;28;20459;-68
2023/08/09 06:50:41;;;;;;;6.93;2.50;;;;;;;13.78;100.00;101070.13;6299004;28;20055;-68
2023/08/09 06:53:42;;;;;;;7.88;2.53;;;;;;;13.91;100.00;101076.34;6292533;28;20048;-68
2023/08/09 06:56:44;;;;;;;4.32;2.47;;;;;;;13.90;100.00;101085.22;6301144;28;20055;-68
2023/08/09 06:59:47;;;;;;;6.38;2.50;;;;;;;13.95;100.00;101077.00;6296264;28;20056;-68
2023/08/09 07:02:50;;;;;;;3.70;2.33;;;;;;;14.00;100.00;101082.00;6291420;28;20044;-69
2023/08/09 07:05:51;;;;;;;6.20;2.45;;;;;;;14.03;100.00;101084.44;6301035;28;20048;-69
2023/08/09 07:08:53;;;;;;;3.03;1.95;;;;;;;14.05;100.00;101101.91;6300835;28;20106;-68
2023/08/09 07:11:54;;;;;;;5.65;2.25;;;;;;;14.10;100.00;101096.34;6300688;28;20053;-68
2023/08/09 07:14:57;;;;;;;6.82;2.05;;;;;;;14.14;100.00;101095.22;6299517;22;20041;-74
2023/08/09 07:17:58;;;;;;;7.93;2.13;;;;;;;14.21;100.00;101107.06;6264277;28;20060;-75
2023/08/09 07:21:00;;;;;;;3.72;1.98;;;;;;;14.27;100.00;101104.06;6251135;28;20050;-75
2023/08/09 07:24:01;;;;;;;7.45;1.92;;;;;;;14.25;100.00;101105.09;6250926;28;20050;-74
2023/08/09 07:27:03;;;;;;;5.63;1.65;;;;;;;14.34;100.00;101104.50;6251057;28;20060;-75
2023/08/09 07:30:07;;;;;;;5.25;1.90;;;;;;;14.42;100.00;101102.25;6247934;28;20046;-74
2023/08/09 07:33:09;;;;;;;3.53;1.40;;;;;;;14.45;100.00;101102.06;6251680;28;20045;-74
2023/08/09 07:36:11;;;;;;;2.88;1.50;;;;;;;14.55;100.00;101115.56;6262029;28;20060;-75
2023/08/09 07:39:12;;;;;;;4.55;1.33;;;;;;;14.62;100.00;101114.22;6252980;28;20063;-75
2023/08/09 07:42:14;;;;;;;2.63;1.33;;;;;;;14.71;100.00;101122.41;6255303;28;20338;-74
2023/08/09 07:45:17;;;;;;;2.35;1.38;;;;;;;14.82;100.00;101123.53;6250450;28;20053;-75
2023/08/09 07:48:18;;;;;;;2.72;1.60;;;;;;;14.86;100.00;101120.56;6250382;28;20327;-74
2023/08/09 07:51:21;;;;;;;2.13;1.33;;;;;;;15.01;100.00;101128.44;6258731;28;20349;-74
2023/08/09 07:54:23;;;;;;;2.13;1.15;;;;;;;15.02;100.00;101132.78;6270000;28;20098;-74
2023/08/09 07:57:24;;;;;;;2.30;1.33;;;;;;;15.02;100.00;101131.00;6266292;28;20057;-74
2023/08/09 08:00:27;;;;;;;2.17;1.30;;;;;;;15.05;100.00;101130.81;6250546;28;20202;-74
2023/08/09 08:03:29;;;;;;;3.03;1.15;;;;;;;15.18;100.00;101139.63;6250205;28;20041;-73
2023/08/09 08:06:30;;;;;;;2.67;1.05;;;;;;;15.29;100.00;101135.41;6260734;28;20048;-73
2023/08/09 08:09:33;;;;;;;3.67;1.30;;;;;;;15.38;100.00;101140.09;6265368;28;20041;-73
2023/08/09 08:12:35;;;;;;;2.70;1.33;;;;;;;15.38;100.00;101142.75;6259408;28;20446;-73
2023/08/09 08:15:37;;;;;;;6.28;1.10;;;;;;;15.42;100.00;101160.13;6258015;28;20061;-74
2023/08/09 08:18:39;;;;;;;2.50;1.17;;;;;;;15.50;100.00;101151.66;6272517;28;20364;-74
2023/08/09 08:21:41;;;;;;;2.70;1.08;;;;;;;15.63;100.00;101160.50;6274832;28;20053;-74
2023/08/09 08:24:42;;;;;;;1.30;0.80;;;;;;;15.64;100.00;101163.06;6255147;28;20057;-74
2023/08/09 08:27:45;;;;;;;1.85;1.00;;;;;;;15.67;100.00;101159.38;6256599;28;20045;-75
2023/08/09 08:30:48;;;;;;;3.55;1.23;;;;;;;15.71;100.00;101161.69;6253362;28;20053;-76
2023/08/09 08:33:51;;;;;;;1.42;0.73;;;;;;;15.72;100.00;101152.78;6259885;28;20064;-75
2023/08/09 08:36:54;;;;;;;7.22;1.73;;;;;;;15.79;100.00;101153.19;6255844;28;20061;-75
2023/08/09 08:39:56;;;;;;;5.07;0.70;;;;;;;15.92;100.00;101159.34;6259654;28;20150;-74
2023/08/09 08:42:58;;;;;;;3.38;0.98;;;;;;;16.10;100.00;101151.94;6262221;28;20054;-74
2023/08/09 08:46:04;;;;;;;2.60;0.80;;;;;;;16.12;100.00;101149.16;6251657;28;20507;-74
2023/08/09 08:49:07;;;;;;;2.05;1.10;;;;;;;16.04;100.00;101170.09;6266484;28;20060;-71
2023/08/09 08:52:12;;;;;;;1.27;0.80;;;;;;;16.13;100.00;101172.94;6274594;28;20053;-75
2023/08/09 08:55:14;;;;;;;2.38;1.25;;;;;;;16.13;100.00;101164.13;6278787;28;20135;-72
2023/08/09 08:58:16;;;;;;;4.75;1.13;;;;;;;16.15;100.00;101170.16;6272319;28;20067;-74
2023/08/09 09:01:19;;;;;;;1.38;1.00;;;;;;;16.14;100.00;101164.03;6258512;28;20331;-74
2023/08/09 09:04:21;;;;;;;2.63;1.10;;;;;;;16.22;100.00;101159.03;6270403;28;20335;-72
2023/08/09 09:07:22;;;;;;;1.00;0.68;;;;;;;16.30;100.00;101154.97;6278935;28;20049;-73
2023/08/09 09:10:24;;;;;;;1.52;0.80;;;;;;;16.35;100.00;101163.44;6278233;28;20049;-75
2023/08/09 09:13:26;;;;;;;2.88;0.80;;;;;;;16.46;100.00;101158.25;6265356;28;20048;-76
2023/08/09 09:16:29;;;;;;;1.67;0.85;;;;;;;16.61;100.00;101169.56;6278804;28;20369;-73
2023/08/09 09:19:36;;;;;;;2.33;1.17;;;;;;;16.64;100.00;101161.38;6278729;28;20132;-72
2023/08/09 09:22:38;;;;;;;0.75;0.60;;;;;;;16.73;100.00;101161.59;6278705;28;20053;-73
2023/08/09 09:25:40;;;;;;;2.45;1.05;;;;;;;16.80;100.00;101161.13;6277611;28;20098;-71
2023/08/09 09:28:44;;;;;;;1.75;0.85;;;;;;;16.86;100.00;101161.56;6270253;28;20130;-73
2023/08/09 09:31:47;;;;;;;1.23;0.77;;;;;;;16.85;100.00;101165.19;6278421;28;20051;-73
2023/08/09 09:34:50;;;;;;;1.17;0.82;;;;;;;16.87;100.00;101173.88;6278070;28;20048;-72
2023/08/09 09:37:52;;;;;;;4.38;1.25;;;;;;;16.98;100.00;101168.59;6268530;28;20131;-74
2023/08/09 09:40:56;;;;;;;1.23;0.75;;;;;;;17.05;100.00;101176.13;6253297;28;20477;-72
2023/08/09 09:43:58;;;;;;;2.20;0.70;;;;;;;17.21;100.00;101168.72;6253197;28;20048;-73
2023/08/09 09:47:02;;;;;;;1.98;1.00;;;;;;;17.27;100.00;101167.44;6253318;28;20056;-72
2023/08/09 09:50:07;;;;;;;5.22;0.98;;;;;;;17.33;100.00;101159.00;6253767;28;20052;-73
2023/08/09 09:53:11;;;;;;;0.98;0.57;;;;;;;17.34;100.00;101176.63;6269326;28;20127;-74
2023/08/09 09:56:13;;;;;;;1.08;0.60;;;;;;;17.36;100.00;101170.25;6277962;28;20063;-73
2023/08/09 09:59:14;;;;;;;2.65;0.50;;;;;;;17.39;100.00;101172.66;6277858;28;20060;-73
2023/08/09 10:02:17;;;;;;;0.60;0.60;;;;;;;17.46;100.00;101178.38;6277872;28;20049;-73
2023/08/09 10:05:22;;;;;;;2.85;0.70;;;;;;;17.36;100.00;101190.66;6262495;28;20335;-73
2023/08/09 10:08:27;;;;;;;3.15;0.75;;;;;;;17.25;100.00;101189.63;6277774;28;20044;-71
2023/08/09 10:11:29;;;;;;;2.00;0.63;;;;;;;17.21;100.00;101187.31;6277855;28;20045;-72
2023/08/09 10:14:32;;;;;;;2.33;0.60;;;;;;;17.08;100.00;101189.16;6267760;28;20052;-71
2023/08/09 10:17:36;;;;;;;2.22;0.75;;;;;;;17.13;100.00;101184.41;6265479;28;20045;-71
2023/08/09 10:20:38;;;;;;;0.60;0.60;;;;;;;17.36;100.00;101191.50;6275950;28;20057;-71
2023/08/09 10:23:40;;;;;;;1.85;0.63;;;;;;;17.52;100.00;101196.50;6263106;28;20049;-72
2023/08/09 10:26:44;;;;;;;1.30;0.57;;;;;;;17.57;100.00;101204.97;6261796;28;20491;-72
2023/08/09 10:29:57;;;;;;;2.22;0.80;;;;;;;17.65;100.00;101205.25;6265388;28;20072;-72
2023/08/09 10:33:02;;;;;;;1.90;0.70;;;;;;;17.64;100.00;101200.91;6263463;28;20069;-72
2023/08/09 10:36:04;;;;;;;1.13;0.60;;;;;;;17.55;100.00;101208.72;6252254;28;20044;-72
2023/08/09 10:39:09;;;;;;;0.60;0.43;;;;;;;17.64;100.00;101205.38;6255351;28;20053;-72
2023/08/09 10:42:14;;;;;;;1.48;1.10;;;;;;;17.62;100.00;101202.84;6269288;28;20051;-73
2023/08/09 10:45:15;;;;;;;2.85;0.80;;;;;;;17.66;100.00;101211.41;6270181;28;20056;-72
2023/08/09 10:48:20;;;;;;;0.82;0.47;;;;;;;17.61;100.00;101219.72;6270457;28;20055;-73
2023/08/09 10:51:23;;;;;;;0.70;0.40;;;;;;;17.61;100.00;101218.88;6255421;28;20052;-73
2023/08/09 10:54:25;;;;;;;1.08;0.40;;;;;;;17.78;100.00;101218.47;6265188;28;20052;-73
2023/08/09 10:57:41;;;;;;;0.40;0.40;;;;;;;17.93;100.00;101216.47;6268761;28;20049;-73
2023/08/09 11:00:43;;;;;;;0.52;0.32;;;;;;;17.88;100.00;101215.97;6274088;28;20056;-73
2023/08/09 11:03:46;;;;;;;1.33;0.65;;;;;;;17.92;100.00;101220.09;6271930;28;20049;-73
2023/08/09 11:06:49;;;;;;;0.60;0.50;;;;;;;18.00;100.00;101215.03;6266118;28;20049;-73
2023/08/09 11:09:50;;;;;;;3.28;0.50;;;;;;;18.12;100.00;101214.09;6276113;28;20060;-73
2023/08/09 11:12:52;;;;;;;3.83;0.70;;;;;;;18.18;100.00;101208.28;6276038;28;20056;-72
2023/08/09 11:15:53;;;;;;;1.63;0.60;;;;;;;18.17;100.00;101205.75;6264019;28;20060;-73
2023/08/09 11:19:05;;;;;;;0.88;0.50;;;;;;;18.28;100.00;101204.91;6251439;28;20061;-73
2023/08/09 11:22:07;;;;;;;4.10;0.80;;;;;;;18.38;100.00;101220.03;6251221;28;20460;-73
2023/08/09 11:25:09;;;;;;;1.45;0.57;;;;;;;18.66;100.00;101204.50;6250737;28;20072;-72
2023/08/09 11:28:13;;;;;;;0.55;0.45;;;;;;;18.76;100.00;101210.84;6251191;28;20049;-72
2023/08/09 11:31:14;;;;;;;1.13;0.57;;;;;;;18.93;100.00;101209.47;6258862;28;20060;-73
2023/08/09 11:34:19;;;;;;;1.45;0.50;;;;;;;18.95;73.09;101205.72;6268840;28;20056;-73
2023/08/09 11:37:20;;;;;;;1.83;0.40;;;;;;;18.76;72.09;101216.19;6270036;28;20354;-73
2023/08/09 11:40:23;;;;;;;0.50;0.43;;;;;;;18.81;70.09;101210.47;6250800;28;20049;-73
2023/08/09 11:43:24;;;;;;;1.20;0.50;;;;;;;19.18;71.95;101224.31;6250544;28;20146;-75
2023/08/09 11:46:26;;;;;;;1.30;0.50;;;;;;;19.13;66.78;101219.38;6258968;28;20049;-74
2023/08/09 11:49:30;;;;;;;0.40;0.40;;;;;;;19.02;66.10;101225.53;6257560;28;20045;-74
2023/08/09 11:52:32;;;;;;;1.90;0.70;;;;;;;18.85;66.82;101219.88;6263882;28;20050;-73
2023/08/09 11:55:33;;;;;;;0.52;0.52;;;;;;;18.88;71.34;101217.84;6262803;28;20041;-73
2023/08/09 11:58:36;;;;;;;3.03;0.93;;;;;;;18.99;64.88;101228.47;6275179;28;20056;-73
2023/08/09 12:01:39;;;;;;;3.20;0.50;;;;;;;19.19;69.40;101232.16;6275123;28;20068;-72
2023/08/09 12:04:43;;;;;;;0.55;0.32;;;;;;;19.63;64.91;101230.34;6274749;28;20045;-73
2023/08/09 12:07:44;;;;;;;1.05;0.57;;;;;;;19.69;60.39;101237.81;6275241;28;20053;-74
2023/08/09 12:10:46;;;;;;;0.47;0.43;;;;;;;19.77;58.29;101240.69;6261071;28;20465;-75
2023/08/09 12:13:47;;;;;;;0.85;0.40;;;;;;;19.85;59.99;101250.72;6257959;28;20053;-74
2023/08/09 12:16:49;;;;;;;2.80;0.60;;;;;;;20.11;59.56;101245.81;6273194;28;20048;-75
2023/08/09 12:19:52;;;;;;;2.78;0.60;;;;;;;19.97;56.29;101248.84;6275174;28;20056;-73
2023/08/09 12:22:53;;;;;;;1.48;0.50;;;;;;;19.83;59.34;101259.81;6274737;28;20081;-73
2023/08/09 12:25:55;;;;;;;1.30;0.50;;;;;;;19.92;57.27;101256.38;6274723;28;20072;-73
2023/08/09 12:28:57;;;;;;;0.75;0.35;;;;;;;20.12;59.13;101263.56;6243320;28;20056;-74
2023/08/09 12:31:59;;;;;;;0.40;0.40;;;;;;;19.77;61.08;101261.19;6249859;28;20049;-73
2023/08/09 12:35:04;;;;;;;0.45;0.40;;;;;;;19.45;59.79;101254.03;6254650;28;20049;-74
2023/08/09 12:38:05;;;;;;;1.42;0.40;;;;;;;19.29;61.35;101252.75;6266206;28;20052;-72
2023/08/09 12:41:06;;;;;;;0.63;0.50;;;;;;;19.30;63.87;101265.94;6279722;28;20049;-74
2023/08/09 12:44:08;;;;;;;1.48;0.50;;;;;;;19.27;61.79;101266.19;6279121;28;20045;-73
2023/08/09 12:47:11;;;;;;;0.60;0.40;;;;;;;19.71;61.29;101262.56;6279610;28;20053;-73
2023/08/09 12:50:13;;;;;;;0.80;0.45;;;;;;;20.20;55.38;101254.88;6257027;28;20109;-73
2023/08/09 12:53:15;;;;;;;0.77;0.68;;;;;;;20.09;59.94;101266.47;6263686;28;20358;-74
2023/08/09 12:56:17;;;;;;;1.10;0.52;;;;;;;19.85;59.67;101263.19;6268681;28;20056;-73
2023/08/09 12:59:18;;;;;;;0.43;0.40;;;;;;;20.07;58.72;101263.06;6273218;28;20059;-74
2023/08/09 13:02:20;;;;;;;0.88;0.60;;;;;;;20.18;58.40;101268.34;6275847;28;20430;-73
2023/08/09 13:05:22;;;;;;;1.83;0.50;;;;;;;19.99;58.16;101261.06;6270699;28;20049;-73
2023/08/09 13:08:24;;;;;;;1.73;0.70;;;;;;;19.92;60.36;101270.56;6279102;28;20135;-72
2023/08/09 13:11:26;;;;;;;1.10;0.70;;;;;;;19.95;59.78;101262.31;6278863;28;20088;-74
2023/08/09 13:14:28;;;;;;;1.98;0.52;;;;;;;19.86;61.96;101272.91;6274311;22;20126;-70
2023/08/09 13:17:29;;;;;;;1.02;0.35;;;;;;;19.84;61.91;101272.19;6270617;28;20061;-70
2023/08/09 13:20:32;;;;;;;0.30;0.30;;;;;;;19.76;61.84;101280.84;6253935;28;20056;-70
2023/08/09 13:23:34;;;;;;;2.05;0.45;;;;;;;20.09;59.34;101284.31;6234399;28;20046;-70
2023/08/09 13:26:35;;;;;;;0.50;0.50;;;;;;;20.36;58.34;101279.28;6229417;28;20054;-70
2023/08/09 13:29:36;;;;;;;0.63;0.50;;;;;;;20.70;56.63;101271.88;6229060;28;20050;-71
2023/08/09 13:32:38;;;;;;;0.68;0.52;;;;;;;20.92;60.88;101272.66;6229106;28;20077;-70
2023/08/09 13:35:41;;;;;;;0.30;0.30;;;;;;;20.82;58.18;101267.28;6228909;28;20056;-70
2023/08/09 13:38:43;;;;;;;0.40;0.40;;;;;;;20.99;56.79;101274.66;6262311;28;20080;-71
2023/08/09 13:41:44;;;;;;;1.58;0.80;;;;;;;21.36;56.59;101281.25;6278295;28;20053;-71
2023/08/09 13:44:46;;;;;;;0.47;0.40;;;;;;;21.29;54.98;101279.06;6277733;28;20048;-71
2023/08/09 13:47:47;;;;;;;1.63;0.57;;;;;;;21.14;56.14;101282.28;6256632;28;20077;-71
2023/08/09 13:50:50;;;;;;;1.25;0.60;;;;;;;20.73;55.35;101289.47;6267529;28;20052;-70
2023/08/09 13:53:54;;;;;;;0.40;0.38;;;;;;;20.27;57.71;101290.75;6277706;28;20059;-70
2023/08/09 13:56:56;;;;;;;0.60;0.40;;;;;;;20.18;58.34;101292.38;6277862;28;20405;-70